createdAt,value
2023-05-19T00:00:37.900Z,69.78
2023-05-19T00:03:09.286Z,69.42
2023-05-19T00:05:41.225Z,69.39
2023-05-19T00:08:12.189Z,69.77
2023-05-19T00:10:41.364Z,69.28
2023-05-19T00:13:10.245Z,68.40
2023-05-19T00:15:41.200Z,69.29
2023-05-19T00:18:10.164Z,69.67
2023-05-19T00:20:39.022Z,68.93
2023-05-19T00:23:07.693Z,68.68
2023-05-19T00:25:36.294Z,68.02
2023-05-19T00:28:05.205Z,68.95
2023-05-19T00:30:33.736Z,68.90
2023-05-19T00:33:03.915Z,69.39
2023-05-19T00:35:32.558Z,70.28
2023-05-19T00:38:01.266Z,71.75
2023-05-19T00:40:32.148Z,71.55
2023-05-19T00:43:01.480Z,72.73
2023-05-19T00:45:31.090Z,72.54
2023-05-19T00:47:59.729Z,72.70
2023-05-19T00:50:30.561Z,73.87
2023-05-19T00:53:00.378Z,75.75
2023-05-19T00:55:32.253Z,75.48
2023-05-19T00:58:01.472Z,75.93
2023-05-19T01:00:32.806Z,74.39
2023-05-19T01:03:03.162Z,73.50
2023-05-19T01:05:33.227Z,74.38
2023-05-19T01:08:05.306Z,72.97
2023-05-19T01:10:34.144Z,72.78
2023-05-19T01:13:06.197Z,73.93
2023-05-19T01:15:40.958Z,73.92
2023-05-19T01:18:15.617Z,75.78
2023-05-19T01:20:55.322Z,73.92
2023-05-19T01:23:38.192Z,73.96
2023-05-19T01:26:26.115Z,75.12
2023-05-19T01:29:28.398Z,73.33
2023-05-19T01:32:01.349Z,72.87
2023-05-19T01:34:32.245Z,72.88
2023-05-19T01:37:02.864Z,74.22
2023-05-19T01:39:31.710Z,72.85
2023-05-19T01:42:02.897Z,74.21
2023-05-19T01:44:32.954Z,74.19
2023-05-19T01:47:03.874Z,73.47
2023-05-19T01:49:32.519Z,73.03
2023-05-19T01:52:01.005Z,74.43
2023-05-19T01:54:29.654Z,75.10
2023-05-19T01:57:11.017Z,75.85
2023-05-19T01:59:53.409Z,75.53
2023-05-19T02:02:36.496Z,74.50
2023-05-19T02:05:14.162Z,75.76
2023-05-19T02:07:46.806Z,75.90
2023-05-19T02:10:20.797Z,76.49
2023-05-19T02:12:54.178Z,74.75
2023-05-19T02:15:26.140Z,74.61
2023-05-19T02:17:57.359Z,74.33
2023-05-19T02:20:45.919Z,74.52
2023-05-19T02:23:14.368Z,74.19
2023-05-19T02:25:42.941Z,74.44
2023-05-19T02:28:11.628Z,74.19
2023-05-19T02:30:40.130Z,74.60
2023-05-19T02:33:12.901Z,74.83
2023-05-19T02:35:41.544Z,74.14
2023-05-19T02:38:10.200Z,73.26
2023-05-19T02:40:43.715Z,73.88
2023-05-19T02:43:12.697Z,75.38
2023-05-19T02:45:42.173Z,74.63
2023-05-19T02:48:14.872Z,74.56
2023-05-19T02:50:43.584Z,75.25
2023-05-19T02:53:12.139Z,76.44
2023-05-19T02:55:40.911Z,75.08
2023-05-19T02:58:09.481Z,74.42
2023-05-19T03:00:38.104Z,74.40
2023-05-19T03:03:06.811Z,74.54
2023-05-19T03:05:36.990Z,74.67
2023-05-19T03:08:06.324Z,73.59
2023-05-19T03:10:34.958Z,74.03
2023-05-19T03:13:03.779Z,74.16
2023-05-19T03:15:32.585Z,74.07
2023-05-19T03:18:01.413Z,73.00
2023-05-19T03:20:30.920Z,73.86
2023-05-19T03:23:01.557Z,73.14
2023-05-19T03:25:30.812Z,73.36
2023-05-19T03:27:59.100Z,74.08
2023-05-19T03:30:27.647Z,73.15
2023-05-19T03:33:19.065Z,72.63
2023-05-19T03:35:47.941Z,72.27
2023-05-19T03:38:18.936Z,72.68
2023-05-19T03:40:56.318Z,72.88
2023-05-19T03:43:24.948Z,72.87
2023-05-19T03:46:03.910Z,71.86
2023-05-19T03:49:05.966Z,71.29
2023-05-19T03:52:03.512Z,70.39
2023-05-19T03:54:39.897Z,70.28
2023-05-19T03:57:08.777Z,71.53
2023-05-19T03:59:37.358Z,70.70
2023-05-19T04:02:08.219Z,69.64
2023-05-19T04:04:40.977Z,69.91
2023-05-19T04:07:09.724Z,68.44
2023-05-19T04:09:39.830Z,70.09
2023-05-19T04:12:09.168Z,69.10
2023-05-19T04:14:37.869Z,69.15
2023-05-19T04:17:06.776Z,69.28
2023-05-19T04:19:35.145Z,70.53
2023-05-19T04:22:04.973Z,70.69
2023-05-19T04:24:33.934Z,71.93
2023-05-19T04:27:07.349Z,72.40
2023-05-19T04:29:36.129Z,72.24
2023-05-19T04:32:08.167Z,72.44
2023-05-19T04:34:40.410Z,73.05
2023-05-19T04:37:10.855Z,72.49
2023-05-19T04:39:43.200Z,72.54
2023-05-19T04:42:19.645Z,72.55
2023-05-19T04:44:51.982Z,73.73
2023-05-19T04:47:22.457Z,74.17
2023-05-19T04:49:55.618Z,74.87
2023-05-19T04:52:24.386Z,73.98
2023-05-19T04:54:53.282Z,74.69
2023-05-19T04:57:23.527Z,73.91
2023-05-19T04:59:52.347Z,74.11
2023-05-19T05:02:22.107Z,73.38
2023-05-19T05:04:50.851Z,74.08
2023-05-19T05:07:19.441Z,74.47
2023-05-19T05:09:48.293Z,74.29
2023-05-19T05:12:18.906Z,74.94
2023-05-19T05:14:51.662Z,75.17
2023-05-19T05:17:21.976Z,74.67
2023-05-19T05:19:51.399Z,73.98
2023-05-19T05:22:21.123Z,74.23
2023-05-19T05:24:50.937Z,72.94
2023-05-19T05:27:20.617Z,73.72
2023-05-19T05:29:51.649Z,74.17
2023-05-19T05:32:22.188Z,73.42
2023-05-19T05:34:51.437Z,72.97
2023-05-19T05:37:22.230Z,73.44
2023-05-19T05:39:50.789Z,73.50
2023-05-19T05:42:20.419Z,74.24
2023-05-19T05:44:51.170Z,73.95
2023-05-19T05:47:20.599Z,73.84
2023-05-19T05:49:51.149Z,73.88
2023-05-19T05:52:23.929Z,74.15
2023-05-19T05:54:53.795Z,74.42
2023-05-19T05:57:23.460Z,73.74
2023-05-19T05:59:53.714Z,75.13
2023-05-19T06:02:25.880Z,75.26
2023-05-19T06:05:14.300Z,74.73
2023-05-19T06:07:44.583Z,74.83
2023-05-19T06:10:16.976Z,74.26
2023-05-19T06:12:45.667Z,73.73
2023-05-19T06:15:15.621Z,74.20
2023-05-19T06:18:04.555Z,74.05
2023-05-19T06:20:33.332Z,73.68
2023-05-19T06:23:02.698Z,73.44
2023-05-19T06:25:31.847Z,72.53
2023-05-19T06:28:00.880Z,71.79
2023-05-19T06:30:31.816Z,71.20
2023-05-19T06:33:13.693Z,71.00
2023-05-19T06:35:42.870Z,71.25
2023-05-19T06:38:11.557Z,71.10
2023-05-19T06:40:40.116Z,73.29
2023-05-19T06:43:08.836Z,73.01
2023-05-19T06:45:59.034Z,72.87
2023-05-19T06:48:28.404Z,73.37
2023-05-19T06:50:58.271Z,73.33
2023-05-19T06:53:27.573Z,73.54
2023-05-19T06:55:59.836Z,72.68
2023-05-19T06:58:36.138Z,72.50
2023-05-19T07:01:08.694Z,73.27
2023-05-19T07:03:44.134Z,73.61
2023-05-19T07:06:14.038Z,74.35
2023-05-19T07:08:43.514Z,73.81
2023-05-19T07:11:14.438Z,73.58
2023-05-19T07:13:44.062Z,73.28
2023-05-19T07:16:15.395Z,69.75
2023-05-19T07:18:43.993Z,64.31
2023-05-19T07:21:13.279Z,62.63
2023-05-19T07:23:42.025Z,62.20
2023-05-19T07:26:10.519Z,62.16
2023-05-19T07:28:41.438Z,64.79
2023-05-19T07:31:11.268Z,65.17
2023-05-19T07:33:41.759Z,64.42
2023-05-19T07:36:10.390Z,64.54
2023-05-19T07:38:39.122Z,64.17
2023-05-19T07:41:07.685Z,61.64
2023-05-19T07:43:36.287Z,61.65
2023-05-19T07:46:05.129Z,59.80
2023-05-19T07:48:33.898Z,58.91
2023-05-19T07:51:03.604Z,57.24
2023-05-19T07:53:32.218Z,56.55
2023-05-19T07:56:00.775Z,56.17
2023-05-19T07:58:29.440Z,57.92
2023-05-19T08:00:59.066Z,59.58
2023-05-19T08:03:28.419Z,60.11
2023-05-19T08:05:57.295Z,54.98
2023-05-19T08:08:29.558Z,56.40
2023-05-19T08:10:58.698Z,58.17
2023-05-19T08:13:27.463Z,58.74
2023-05-19T08:15:59.901Z,62.10
2023-05-19T08:18:28.677Z,58.12
2023-05-19T08:20:57.235Z,59.55
2023-05-19T08:23:25.954Z,59.08
2023-05-19T08:25:55.858Z,57.66
2023-05-19T08:28:24.433Z,57.81
2023-05-19T08:30:55.951Z,59.08
2023-05-19T08:33:34.929Z,57.75
2023-05-19T08:36:11.159Z,56.38
2023-05-19T08:38:56.386Z,55.11
2023-05-19T08:41:29.876Z,55.65
2023-05-19T08:43:58.451Z,53.24
2023-05-19T08:46:31.823Z,53.52
2023-05-19T08:49:11.644Z,56.73
2023-05-19T08:51:48.614Z,57.26
2023-05-19T08:54:25.668Z,53.97
2023-05-19T08:56:57.690Z,52.78
2023-05-19T08:59:33.031Z,54.93
2023-05-19T09:04:48.725Z,53.15
2023-05-19T09:07:17.782Z,51.52
2023-05-19T09:09:46.839Z,51.56
2023-05-19T09:12:19.791Z,50.48
2023-05-19T09:14:48.465Z,52.71
2023-05-19T09:17:19.112Z,49.59
2023-05-19T09:19:49.420Z,48.57
2023-05-19T09:22:19.396Z,47.21
2023-05-19T09:24:49.001Z,47.56
2023-05-19T09:27:24.662Z,51.83
2023-05-19T09:29:53.219Z,50.37
2023-05-19T09:32:31.652Z,50.60
2023-05-19T09:35:04.558Z,50.36
2023-05-19T09:37:33.569Z,47.29
2023-05-19T09:40:01.813Z,50.89
2023-05-19T09:42:38.950Z,44.51
2023-05-19T09:45:09.519Z,43.81
2023-05-19T09:47:44.799Z,44.83
2023-05-19T09:50:18.122Z,46.18
2023-05-19T09:52:46.731Z,46.01
2023-05-19T09:55:23.279Z,45.55
2023-05-19T09:57:57.237Z,43.50
2023-05-19T10:00:27.981Z,42.66
2023-05-19T10:02:57.563Z,41.84
2023-05-19T10:05:26.355Z,41.38
2023-05-19T10:08:12.212Z,41.44
2023-05-19T10:10:44.068Z,41.95
2023-05-19T10:13:14.044Z,41.16
2023-05-19T10:15:58.085Z,39.60
2023-05-19T10:18:32.378Z,40.03
2023-05-19T10:21:24.393Z,44.07
2023-05-19T10:24:01.428Z,39.54
2023-05-19T10:26:43.728Z,37.92
2023-05-19T10:29:45.555Z,38.48
2023-05-19T10:32:47.298Z,40.32
2023-05-19T10:35:53.984Z,38.53
2023-05-19T10:39:08.385Z,38.38
2023-05-19T10:42:04.353Z,39.20
2023-05-19T10:45:11.797Z,39.39
2023-05-19T10:48:07.559Z,34.57
2023-05-19T10:50:39.323Z,33.71
2023-05-19T10:53:19.658Z,36.46
2023-05-19T10:55:59.218Z,37.01
2023-05-19T10:58:41.755Z,39.63
2023-05-19T11:01:15.148Z,35.93
2023-05-19T11:03:47.845Z,33.75
2023-05-19T11:06:28.432Z,35.51
2023-05-19T11:09:05.848Z,33.38
2023-05-19T11:11:47.220Z,31.45
2023-05-19T11:14:17.902Z,33.47
2023-05-19T11:16:59.739Z,35.32
2023-05-19T11:19:36.394Z,33.13
2023-05-19T11:22:15.807Z,35.24
2023-05-19T11:24:53.085Z,32.23
2023-05-19T11:27:34.206Z,32.42
2023-05-19T11:30:18.800Z,35.34
2023-05-19T11:32:54.916Z,34.63
2023-05-19T11:35:38.514Z,30.54
2023-05-19T11:38:16.539Z,30.42
2023-05-19T11:40:46.039Z,29.19
2023-05-19T11:43:14.776Z,30.25
2023-05-19T11:45:46.105Z,30.77
2023-05-19T11:48:17.843Z,34.57
2023-05-19T11:50:47.040Z,31.19
2023-05-19T11:53:23.477Z,31.88
2023-05-19T11:55:52.756Z,31.68
2023-05-19T11:58:28.041Z,33.41
2023-05-19T12:00:56.863Z,31.36
2023-05-19T12:03:29.968Z,32.59
2023-05-19T12:06:06.319Z,31.13
2023-05-19T12:08:41.003Z,32.48
2023-05-19T12:11:09.978Z,31.61
2023-05-19T12:13:41.346Z,31.67
2023-05-19T12:16:10.123Z,31.38
2023-05-19T12:18:40.538Z,33.60
2023-05-19T12:21:09.183Z,32.03
2023-05-19T12:23:37.872Z,31.52
2023-05-19T12:26:06.381Z,31.75
2023-05-19T12:28:34.944Z,31.17
2023-05-19T12:31:04.188Z,31.23
2023-05-19T12:33:36.167Z,34.71
2023-05-19T12:36:07.860Z,31.91
2023-05-19T12:38:37.635Z,30.71
2023-05-19T12:41:07.258Z,30.15
2023-05-19T12:43:39.622Z,29.13
2023-05-19T12:46:13.892Z,34.38
2023-05-19T12:48:43.147Z,29.46
2023-05-19T12:51:17.478Z,32.25
2023-05-19T12:53:47.555Z,30.15
2023-05-19T12:56:17.210Z,30.69
2023-05-19T12:58:46.192Z,30.04
2023-05-19T13:01:18.894Z,33.31
2023-05-19T13:03:47.808Z,31.14
2023-05-19T13:06:17.751Z,33.54
2023-05-19T13:08:48.606Z,30.55
2023-05-19T13:11:23.530Z,34.01
2023-05-19T13:13:55.376Z,29.68
2023-05-19T13:16:27.276Z,29.44
2023-05-19T13:19:01.484Z,32.59
2023-05-19T13:21:32.070Z,30.68
2023-05-19T13:24:00.942Z,30.04
2023-05-19T13:26:46.736Z,30.05
2023-05-19T13:29:15.770Z,29.40
2023-05-19T13:31:44.682Z,31.32
2023-05-19T13:34:17.365Z,30.38
2023-05-19T13:36:49.098Z,29.76
2023-05-19T13:39:20.703Z,29.58
2023-05-19T13:41:52.886Z,30.47
2023-05-19T13:44:21.937Z,30.61
2023-05-19T13:46:52.202Z,30.95
2023-05-19T13:49:23.550Z,30.20
2023-05-19T13:51:58.328Z,33.87
2023-05-19T13:54:27.168Z,30.56
2023-05-19T13:57:01.629Z,31.35
2023-05-19T13:59:33.370Z,30.37
2023-05-19T14:02:10.782Z,29.88
2023-05-19T14:04:41.466Z,29.70
2023-05-19T14:07:11.661Z,32.94
2023-05-19T14:09:40.297Z,29.62
2023-05-19T14:12:12.256Z,30.23
2023-05-19T14:14:40.938Z,29.68
2023-05-19T14:17:11.839Z,29.84
2023-05-19T14:19:41.004Z,29.57
2023-05-19T14:22:11.080Z,29.67
2023-05-19T14:24:39.696Z,30.07
2023-05-19T14:27:11.350Z,31.12
2023-05-19T14:29:42.622Z,29.35
2023-05-19T14:32:12.598Z,29.43
2023-05-19T14:34:48.772Z,29.73
2023-05-19T14:37:32.807Z,31.08
2023-05-19T14:40:04.874Z,30.31
2023-05-19T14:42:36.091Z,30.87
2023-05-19T14:45:13.872Z,30.37
2023-05-19T14:47:42.950Z,30.34
2023-05-19T14:50:14.334Z,30.46
2023-05-19T14:52:46.566Z,31.71
2023-05-19T14:55:20.292Z,32.71
2023-05-19T14:57:49.317Z,30.57
2023-05-19T15:00:18.373Z,29.95
2023-05-19T15:02:47.191Z,30.13
2023-05-19T15:05:17.258Z,31.57
2023-05-19T15:07:47.437Z,30.74
2023-05-19T15:10:16.623Z,29.96
2023-05-19T15:13:13.639Z,29.59
2023-05-19T15:15:42.445Z,30.26
2023-05-19T15:18:13.360Z,29.50
2023-05-19T15:20:42.685Z,29.65
2023-05-19T15:23:13.321Z,29.71
2023-05-19T15:26:06.982Z,29.68
2023-05-19T15:28:45.396Z,29.60
2023-05-19T15:31:14.520Z,30.14
2023-05-19T15:33:46.354Z,30.51
2023-05-19T15:39:41.260Z,31.15
2023-05-19T15:42:10.321Z,31.69
2023-05-19T15:48:36.755Z,31.37
2023-05-19T15:51:14.750Z,32.17
2023-05-19T15:53:47.852Z,31.54
2023-05-19T15:56:21.886Z,31.71
2023-05-19T15:58:51.100Z,31.56
2023-05-19T16:01:20.195Z,31.36
2023-05-19T16:03:49.264Z,31.52
2023-05-19T16:06:18.322Z,31.93
2023-05-19T16:08:47.243Z,32.19
2023-05-19T16:11:16.173Z,34.48
2023-05-19T16:13:48.750Z,34.09
2023-05-19T16:16:20.692Z,33.00
2023-05-19T16:18:53.786Z,34.70
2023-05-19T16:21:28.403Z,33.45
2023-05-19T16:24:00.237Z,33.85
2023-05-19T16:26:32.172Z,35.14
2023-05-19T16:29:04.708Z,33.78
2023-05-19T16:31:39.510Z,33.43
2023-05-19T16:34:08.291Z,33.67
2023-05-19T16:36:40.016Z,35.05
2023-05-19T16:39:08.713Z,33.99
2023-05-19T16:41:39.768Z,33.86
2023-05-19T16:44:16.935Z,37.00
2023-05-19T16:46:45.809Z,34.94
2023-05-19T16:49:17.337Z,36.31
2023-05-19T16:51:48.199Z,34.73
2023-05-19T16:54:24.969Z,36.64
2023-05-19T16:56:54.345Z,35.32
2023-05-19T16:59:24.408Z,36.07
2023-05-19T17:01:53.208Z,37.96
2023-05-19T17:04:24.220Z,36.15
2023-05-19T17:06:53.269Z,36.51
2023-05-19T17:09:25.374Z,36.58
2023-05-19T17:11:54.314Z,36.53
2023-05-19T17:14:24.348Z,37.86
2023-05-19T17:16:55.778Z,37.74
2023-05-19T17:19:26.154Z,37.44
2023-05-19T17:21:56.733Z,38.34
2023-05-19T17:24:25.594Z,38.11
2023-05-19T17:26:53.964Z,38.44
2023-05-19T17:29:24.905Z,39.36
2023-05-19T17:31:56.828Z,38.62
2023-05-19T17:34:26.373Z,39.03
2023-05-19T17:36:54.949Z,39.32
2023-05-19T17:39:43.353Z,39.58
2023-05-19T17:42:15.969Z,40.13
2023-05-19T17:44:50.086Z,40.52
2023-05-19T17:47:19.155Z,39.67
2023-05-19T17:49:48.022Z,40.13
2023-05-19T17:52:19.434Z,40.51
2023-05-19T17:54:48.637Z,40.44
2023-05-19T17:57:32.519Z,40.97
2023-05-19T18:00:08.402Z,41.33
2023-05-19T18:02:38.361Z,41.41
2023-05-19T18:05:08.529Z,41.56
2023-05-19T18:07:46.872Z,42.48
2023-05-19T18:10:20.518Z,42.54
2023-05-19T18:12:49.380Z,42.47
2023-05-19T18:15:24.232Z,42.82
2023-05-19T18:18:00.177Z,42.94
2023-05-19T18:20:49.111Z,42.91
2023-05-19T18:23:18.099Z,42.79
2023-05-19T18:25:51.965Z,43.40
2023-05-19T18:28:20.910Z,43.36
2023-05-19T18:30:59.354Z,43.33
2023-05-19T18:34:00.100Z,43.94
2023-05-19T18:36:32.649Z,43.83
2023-05-19T18:39:06.271Z,43.73
2023-05-19T18:41:37.595Z,43.97
2023-05-19T18:44:08.206Z,44.10
2023-05-19T18:46:40.027Z,44.17
2023-05-19T18:49:11.709Z,44.37
2023-05-19T18:51:45.404Z,44.58
2023-05-19T18:54:15.621Z,44.57
2023-05-19T18:56:46.829Z,44.70
2023-05-19T18:59:15.684Z,44.74
2023-05-19T19:01:47.768Z,44.91
2023-05-19T19:04:19.757Z,45.66
2023-05-19T19:06:49.261Z,45.93
2023-05-19T19:09:17.928Z,45.77
2023-05-19T19:11:46.610Z,46.20
2023-05-19T19:14:15.411Z,46.10
2023-05-19T19:16:44.180Z,46.35
2023-05-19T19:19:14.386Z,46.25
2023-05-19T19:21:43.278Z,46.76
2023-05-19T19:24:11.625Z,46.32
2023-05-19T19:26:40.412Z,46.79
2023-05-19T19:29:09.219Z,46.46
2023-05-19T19:31:38.676Z,46.81
2023-05-19T19:34:09.390Z,47.59
2023-05-19T19:36:39.526Z,47.37
2023-05-19T19:39:08.340Z,47.84
2023-05-19T19:41:37.028Z,47.50
2023-05-19T19:44:05.716Z,47.45
2023-05-19T19:46:34.361Z,47.76
2023-05-19T19:49:03.609Z,48.08
2023-05-19T19:51:34.652Z,48.18
2023-05-19T19:54:04.856Z,48.20
2023-05-19T19:56:36.306Z,48.54
2023-05-19T19:59:05.123Z,48.33
2023-05-19T20:01:38.507Z,48.83
2023-05-19T20:04:07.446Z,48.81
2023-05-19T20:06:37.224Z,48.59
2023-05-19T20:09:07.196Z,48.83
2023-05-19T20:11:39.185Z,49.44
2023-05-19T20:14:12.717Z,48.39
2023-05-19T20:16:41.872Z,49.26
2023-05-19T20:19:11.985Z,49.54
2023-05-19T20:21:41.732Z,49.13
2023-05-19T20:24:11.736Z,48.87
2023-05-19T20:26:40.394Z,49.16
2023-05-19T20:29:09.040Z,48.96
2023-05-19T20:31:37.704Z,49.14
2023-05-19T20:34:06.488Z,48.93
2023-05-19T20:36:35.349Z,49.57
2023-05-19T20:39:09.849Z,49.63
2023-05-19T20:41:40.336Z,50.21
2023-05-19T20:44:10.492Z,49.97
2023-05-19T20:46:42.493Z,50.07
2023-05-19T20:49:11.173Z,50.06
2023-05-19T20:51:41.876Z,50.27
2023-05-19T20:54:10.569Z,50.19
2023-05-19T20:56:40.676Z,50.16
2023-05-19T20:59:09.449Z,50.44
2023-05-19T21:01:38.097Z,50.05
2023-05-19T21:04:07.978Z,50.41
2023-05-19T21:06:36.732Z,49.89
2023-05-19T21:09:07.977Z,50.22
2023-05-19T21:11:36.637Z,50.25
2023-05-19T21:14:08.230Z,50.48
2023-05-19T21:16:38.973Z,50.66
2023-05-19T21:19:08.182Z,50.21
2023-05-19T21:21:38.492Z,50.43
2023-05-19T21:24:10.133Z,50.47
2023-05-19T21:26:41.789Z,50.15
2023-05-19T21:29:12.360Z,50.39
2023-05-19T21:31:41.132Z,50.46
2023-05-19T21:34:09.649Z,50.32
2023-05-19T21:36:38.396Z,49.97
2023-05-19T21:39:07.123Z,50.21
2023-05-19T21:41:35.765Z,49.20
2023-05-19T21:44:04.498Z,49.25
2023-05-19T21:46:34.251Z,48.82
2023-05-19T21:49:02.811Z,48.77
2023-05-19T21:51:31.828Z,48.53
2023-05-19T21:54:00.461Z,48.94
2023-05-19T21:56:29.065Z,49.22
2023-05-19T21:58:57.810Z,49.49
2023-05-19T22:01:26.719Z,49.47
2023-05-19T22:03:57.093Z,49.51
2023-05-19T22:06:26.385Z,49.48
2023-05-19T22:08:54.763Z,49.22
2023-05-19T22:11:23.371Z,49.67
2023-05-19T22:13:54.816Z,49.47
2023-05-19T22:16:23.578Z,49.39
2023-05-19T22:18:52.226Z,49.10
2023-05-19T22:21:22.427Z,49.50
2023-05-19T22:23:51.031Z,49.78
2023-05-19T22:26:19.613Z,49.90
2023-05-19T22:28:48.287Z,49.81
2023-05-19T22:31:16.972Z,49.95
2023-05-19T22:33:45.806Z,50.30
2023-05-19T22:36:16.267Z,50.27
2023-05-19T22:38:46.297Z,50.36
2023-05-19T22:41:14.989Z,50.24
2023-05-19T22:43:43.545Z,50.20
2023-05-19T22:46:12.181Z,50.26
2023-05-19T22:48:40.853Z,49.89
2023-05-19T22:51:12.752Z,50.02
2023-05-19T22:53:42.643Z,50.12
2023-05-19T22:56:14.939Z,50.06
2023-05-19T22:58:43.539Z,49.86
2023-05-19T23:01:12.172Z,50.10
2023-05-19T23:03:40.886Z,49.88
2023-05-19T23:06:09.586Z,49.74
2023-05-19T23:08:38.167Z,49.68
2023-05-19T23:11:06.773Z,50.13
2023-05-19T23:13:36.794Z,50.10
2023-05-19T23:16:07.699Z,49.46
2023-05-19T23:18:36.594Z,49.95
2023-05-19T23:21:05.250Z,49.96
2023-05-19T23:23:35.984Z,49.71
2023-05-19T23:26:04.497Z,50.31
2023-05-19T23:28:33.144Z,50.30
2023-05-19T23:31:03.414Z,50.29
2023-05-19T23:33:31.979Z,50.61
2023-05-19T23:36:01.405Z,50.82
2023-05-19T23:38:32.440Z,50.71
2023-05-19T23:41:01.134Z,51.14
2023-05-19T23:43:29.790Z,50.81
2023-05-19T23:45:58.407Z,50.80
2023-05-19T23:48:29.189Z,51.10
2023-05-19T23:50:58.832Z,51.29
2023-05-19T23:53:30.245Z,51.23
2023-05-19T23:55:59.054Z,51.56
2023-05-19T23:58:27.715Z,51.60
